Time;durP1;ratioP1;P1;durP2;ratioP2;P2;SDS_P1;SDS_P2;PMS_P1;PMS_P2;Temp;Humidity;BMP_temperature;BMP_pressure;BME280_temperature;BME280_humidity;BME280_pressure;Samples;Min_cycle;Max_cycle;Signal;HPM_P1;HPM_P2
2022/11/14 00:00:28;;;;;;;31.58;20.38;;;7.90;99.90;;;;;;5095314;28;20071;-80
2022/11/14 00:02:54;;;;;;;31.80;20.25;;;7.90;99.90;;;;;;5095371;28;20108;-81
2022/11/14 00:05:20;;;;;;;34.20;21.35;;;7.90;99.90;;;;;;5112427;28;20492;-81
2022/11/14 00:07:46;;;;;;;31.80;21.10;;;7.80;99.90;;;;;;5094895;28;20542;-81
2022/11/14 00:10:16;;;;;;;30.05;20.15;;;7.90;99.90;;;;;;5113383;28;20039;-81
2022/11/14 00:12:41;;;;;;;32.30;20.75;;;7.90;99.90;;;;;;5112242;28;20031;-81
2022/11/14 00:15:08;;;;;;;34.22;21.02;;;7.90;99.90;;;;;;5113945;28;20092;-81
2022/11/14 00:17:33;;;;;;;32.78;22.15;;;7.80;99.90;;;;;;5112977;28;20060;-81
2022/11/14 00:19:59;;;;;;;32.55;20.90;;;7.80;99.90;;;;;;5094460;28;20478;-81
2022/11/14 00:22:24;;;;;;;31.88;20.88;;;7.80;99.90;;;;;;5113205;28;20036;-81
2022/11/14 00:24:50;;;;;;;30.83;20.55;;;7.80;99.90;;;;;;5112900;28;20036;-81
2022/11/14 00:27:15;;;;;;;31.60;20.67;;;7.80;99.90;;;;;;5112995;28;20525;-81
2022/11/14 00:29:41;;;;;;;31.77;19.88;;;7.80;99.90;;;;;;5113369;28;20081;-81
2022/11/14 00:32:07;;;;;;;31.02;20.95;;;7.80;99.90;;;;;;5094385;28;20528;-81
2022/11/14 00:34:33;;;;;;;31.13;20.17;;;7.80;99.90;;;;;;5093782;28;20093;-81
2022/11/14 00:36:58;;;;;;;29.00;20.33;;;7.80;99.90;;;;;;5113630;28;20042;-82
2022/11/14 00:39:24;;;;;;;30.63;20.55;;;7.90;99.90;;;;;;5094512;28;20039;-81
2022/11/14 00:41:50;;;;;;;30.95;21.10;;;7.80;99.90;;;;;;5079533;28;20079;-81
2022/11/14 00:44:15;;;;;;;28.00;19.95;;;7.80;99.90;;;;;;5093379;28;20443;-81
2022/11/14 00:46:41;;;;;;;29.30;20.85;;;7.90;99.90;;;;;;5112009;28;20039;-81
2022/11/14 00:49:07;;;;;;;28.98;19.98;;;7.80;99.90;;;;;;5094869;28;20118;-81
2022/11/14 00:51:32;;;;;;;29.98;20.60;;;7.80;99.90;;;;;;5086213;28;20058;-81
2022/11/14 00:53:58;;;;;;;31.08;20.08;;;7.80;99.90;;;;;;5090562;28;20093;-80
2022/11/14 00:56:23;;;;;;;30.38;20.30;;;7.90;99.90;;;;;;5112951;28;20036;-81
2022/11/14 00:58:49;;;;;;;29.85;20.55;;;7.90;99.90;;;;;;5094984;28;20092;-81
2022/11/14 01:01:15;;;;;;;32.67;20.60;;;7.90;99.90;;;;;;5094562;28;20044;-81
2022/11/14 01:03:40;;;;;;;30.20;19.80;;;7.90;99.90;;;;;;5094491;28;20131;-81
2022/11/14 01:06:08;;;;;;;29.60;20.92;;;7.90;99.90;;;;;;5095384;28;20359;-81
2022/11/14 01:08:35;;;;;;;28.60;20.20;;;7.90;99.90;;;;;;5093512;28;20118;-81
2022/11/14 01:11:00;;;;;;;29.38;20.15;;;7.90;99.90;;;;;;5094955;28;20083;-81
2022/11/14 01:13:30;;;;;;;30.55;21.00;;;7.90;99.90;;;;;;5094854;28;20076;-81
2022/11/14 01:15:59;;;;;;;30.63;21.50;;;7.90;99.90;;;;;;5112476;28;20111;-81
2022/11/14 01:18:26;;;;;;;28.85;21.10;;;7.90;99.90;;;;;;5094290;28;20170;-81
2022/11/14 01:20:51;;;;;;;27.27;21.13;;;7.90;99.90;;;;;;5094511;28;20043;-81
2022/11/14 01:23:17;;;;;;;30.48;21.98;;;7.90;99.90;;;;;;5112016;28;20036;-81
2022/11/14 01:25:43;;;;;;;29.58;21.40;;;7.90;99.90;;;;;;5093560;28;20063;-81
2022/11/14 01:28:11;;;;;;;29.98;21.17;;;7.90;99.90;;;;;;5093766;28;20093;-81
2022/11/14 01:30:37;;;;;;;28.15;20.55;;;7.90;99.90;;;;;;5093682;28;20525;-81
2022/11/14 01:33:04;;;;;;;29.55;21.13;;;7.90;99.90;;;;;;5094205;28;20048;-81
2022/11/14 01:35:30;;;;;;;28.95;22.13;;;7.90;99.90;;;;;;5093512;28;20130;-81
2022/11/14 01:37:56;;;;;;;32.00;23.35;;;7.90;99.90;;;;;;5112224;28;20056;-81
2022/11/14 01:40:22;;;;;;;30.90;23.63;;;7.90;99.90;;;;;;5094437;28;20040;-81
2022/11/14 01:43:33;;;;;;;33.25;24.23;;;7.90;99.90;;;;;;5115057;28;20394;-81
2022/11/14 01:46:05;;;;;;;31.27;22.52;;;7.90;99.90;;;;;;5013024;28;20046;-81
2022/11/14 01:48:49;;;;;;;30.90;22.42;;;7.90;99.90;;;;;;5009981;28;20049;-81
2022/11/14 01:51:50;;;;;;;34.13;24.92;;;7.80;99.90;;;;;;5076688;28;20050;-81
2022/11/14 01:54:25;;;;;;;29.98;21.90;;;7.80;99.90;;;;;;5093928;28;20051;-82
2022/11/14 01:57:02;;;;;;;31.88;23.30;;;7.80;99.90;;;;;;5083135;28;20044;-81
2022/11/14 01:59:33;;;;;;;32.67;23.77;;;7.80;99.90;;;;;;5084084;28;20044;-80
2022/11/14 02:02:04;;;;;;;33.63;23.77;;;7.80;99.90;;;;;;5084225;28;20040;-81
2022/11/14 02:04:34;;;;;;;32.08;23.75;;;7.80;99.90;;;;;;5102466;28;20076;-81
2022/11/14 02:07:02;;;;;;;34.53;25.58;;;7.80;99.90;;;;;;5085724;28;20130;-81
2022/11/14 02:09:33;;;;;;;35.42;25.35;;;7.80;99.90;;;;;;5113483;28;20044;-81
2022/11/14 02:12:01;;;;;;;34.20;25.40;;;7.80;99.90;;;;;;5103404;28;20044;-81
2022/11/14 02:14:27;;;;;;;36.20;26.65;;;7.80;99.90;;;;;;5094504;28;20097;-81
2022/11/14 02:16:54;;;;;;;36.83;27.25;;;7.80;99.90;;;;;;5094016;28;20075;-81
2022/11/14 02:19:19;;;;;;;40.13;27.88;;;7.80;99.90;;;;;;5110390;28;20039;-81
2022/11/14 02:21:45;;;;;;;37.22;28.23;;;7.70;99.90;;;;;;5095223;28;20100;-81
2022/11/14 02:24:12;;;;;;;39.65;29.33;;;7.80;99.90;;;;;;5094982;28;20502;-81
2022/11/14 02:26:39;;;;;;;38.90;28.65;;;7.80;99.90;;;;;;5113584;28;20032;-81
2022/11/14 02:29:06;;;;;;;39.80;29.48;;;7.80;99.90;;;;;;5095463;28;20035;-81
2022/11/14 02:31:32;;;;;;;42.00;29.52;;;7.80;99.90;;;;;;5111134;28;20028;-81
2022/11/14 02:33:58;;;;;;;42.17;30.30;;;7.80;99.90;;;;;;5093045;28;20058;-81
2022/11/14 02:36:24;;;;;;;43.45;31.20;;;7.70;99.90;;;;;;5113801;28;20039;-81
2022/11/14 02:38:49;;;;;;;39.33;29.23;;;7.80;99.90;;;;;;5112561;28;20067;-81
2022/11/14 02:41:15;;;;;;;43.00;31.42;;;7.80;99.90;;;;;;5094995;28;20088;-81
2022/11/14 02:43:40;;;;;;;43.00;31.45;;;7.70;99.90;;;;;;5094847;28;20123;-81
2022/11/14 02:46:06;;;;;;;45.35;32.22;;;7.70;99.90;;;;;;5094517;28;20040;-81
2022/11/14 02:48:32;;;;;;;44.60;31.85;;;7.70;99.90;;;;;;5092896;28;20081;-81
2022/11/14 02:50:57;;;;;;;51.00;34.65;;;7.70;99.90;;;;;;5087968;28;20028;-81
2022/11/14 02:53:23;;;;;;;48.35;33.30;;;7.70;99.90;;;;;;5106385;28;20506;-81
2022/11/14 02:55:48;;;;;;;48.55;33.60;;;7.70;99.90;;;;;;5087374;28;20399;-81
2022/11/14 02:58:14;;;;;;;46.60;33.22;;;7.70;99.90;;;;;;5106740;28;20083;-81
2022/11/14 03:00:39;;;;;;;45.25;31.98;;;7.70;99.90;;;;;;5100941;28;20036;-81
2022/11/14 03:03:05;;;;;;;48.92;32.97;;;7.60;99.90;;;;;;5100682;28;20042;-81
2022/11/14 03:05:31;;;;;;;46.38;33.08;;;7.60;99.90;;;;;;5099674;28;20044;-81
2022/11/14 03:07:56;;;;;;;47.22;33.38;;;7.70;99.90;;;;;;5099431;28;20123;-81
2022/11/14 03:10:23;;;;;;;47.15;32.90;;;7.70;99.90;;;;;;5087400;28;20078;-81
2022/11/14 03:12:56;;;;;;;46.85;33.05;;;7.60;99.90;;;;;;5086064;28;20048;-81
2022/11/14 03:15:22;;;;;;;48.70;32.88;;;7.60;99.90;;;;;;5083990;28;20058;-81
2022/11/14 03:17:48;;;;;;;47.67;33.67;;;7.70;99.90;;;;;;5087980;28;20032;-81
2022/11/14 03:20:14;;;;;;;48.35;34.25;;;7.70;99.90;;;;;;5086596;28;20047;-81
2022/11/14 03:22:39;;;;;;;47.15;32.67;;;7.70;99.90;;;;;;5086038;28;20046;-81
2022/11/14 03:25:05;;;;;;;48.72;32.60;;;7.60;99.90;;;;;;5085702;28;20567;-81
2022/11/14 03:27:31;;;;;;;46.70;32.45;;;7.70;99.90;;;;;;5092249;28;20813;-81
2022/11/14 03:29:56;;;;;;;47.55;31.88;;;7.70;99.90;;;;;;5095904;28;20051;-81
2022/11/14 03:32:22;;;;;;;47.97;32.95;;;7.60;99.90;;;;;;5096472;28;20039;-81
2022/11/14 03:34:47;;;;;;;47.63;32.35;;;7.70;99.90;;;;;;5094346;28;20048;-81
2022/11/14 03:37:13;;;;;;;48.15;33.42;;;7.70;99.90;;;;;;5091339;28;20040;-81
2022/11/14 03:39:39;;;;;;;48.75;33.95;;;7.60;99.90;;;;;;5099118;28;20487;-81
2022/11/14 03:42:04;;;;;;;45.83;31.85;;;7.60;99.90;;;;;;5075385;28;20044;-81
2022/11/14 03:44:30;;;;;;;45.25;32.75;;;7.60;99.90;;;;;;5089628;28;20055;-81
2022/11/14 03:46:55;;;;;;;47.22;31.90;;;7.60;99.90;;;;;;5094925;28;20398;-81
2022/11/14 03:49:21;;;;;;;45.67;32.17;;;7.70;99.90;;;;;;5095026;28;20047;-81
2022/11/14 03:51:47;;;;;;;45.72;32.53;;;7.60;99.90;;;;;;5095295;28;20490;-81
2022/11/14 03:54:12;;;;;;;47.95;33.17;;;7.60;99.90;;;;;;5085305;28;20047;-81
2022/11/14 03:56:38;;;;;;;45.63;31.95;;;7.60;99.90;;;;;;5094286;28;20039;-81
2022/11/14 03:59:03;;;;;;;47.47;32.10;;;7.60;99.90;;;;;;5095133;28;20204;-81
2022/11/14 04:01:29;;;;;;;47.83;32.30;;;7.60;99.90;;;;;;5094461;28;20039;-81
2022/11/14 04:03:55;;;;;;;46.45;32.92;;;7.60;99.90;;;;;;5094047;28;20046;-81
2022/11/14 04:06:21;;;;;;;46.42;32.05;;;7.70;99.90;;;;;;5095022;28;20043;-81
2022/11/14 04:08:46;;;;;;;49.13;33.88;;;7.60;99.90;;;;;;5112994;28;20036;-81
2022/11/14 04:11:12;;;;;;;44.17;32.25;;;7.60;99.90;;;;;;5112842;28;20035;-81
2022/11/14 04:13:37;;;;;;;46.58;32.13;;;7.60;99.90;;;;;;5095120;28;20479;-81
2022/11/14 04:16:03;;;;;;;45.38;31.67;;;7.60;99.90;;;;;;5113455;28;20051;-81
2022/11/14 04:18:29;;;;;;;43.25;31.30;;;7.60;99.90;;;;;;5094475;28;20074;-81
2022/11/14 04:20:54;;;;;;;45.38;33.38;;;7.60;99.90;;;;;;5094317;28;20483;-81
2022/11/14 04:23:20;;;;;;;45.97;32.00;;;7.60;99.90;;;;;;5113210;28;20090;-81
2022/11/14 04:25:46;;;;;;;46.08;32.33;;;7.60;99.90;;;;;;5094291;28;20040;-81
2022/11/14 04:28:12;;;;;;;48.17;32.22;;;7.60;99.90;;;;;;5094779;28;20057;-81
2022/11/14 04:30:38;;;;;;;51.33;34.03;;;7.60;99.90;;;;;;5112879;28;20387;-81
2022/11/14 04:33:03;;;;;;;47.27;31.67;;;7.60;99.90;;;;;;5112634;28;20043;-81
2022/11/14 04:35:29;;;;;;;45.83;31.63;;;7.60;99.90;;;;;;5095346;28;20047;-81
2022/11/14 04:37:55;;;;;;;48.88;34.15;;;7.60;99.90;;;;;;5093225;28;20040;-81
2022/11/14 04:40:20;;;;;;;47.08;33.92;;;7.50;99.90;;;;;;5095189;28;20055;-81
2022/11/14 04:42:47;;;;;;;45.97;31.77;;;7.50;99.90;;;;;;5078718;28;20395;-81
2022/11/14 04:45:12;;;;;;;44.55;31.45;;;7.50;99.90;;;;;;5077612;28;20039;-81
2022/11/14 04:47:41;;;;;;;45.75;32.95;;;7.50;99.90;;;;;;5112589;28;20036;-81
2022/11/14 04:50:07;;;;;;;46.42;32.60;;;7.50;99.90;;;;;;5094619;28;20036;-81
2022/11/14 04:52:32;;;;;;;45.67;32.28;;;7.50;99.90;;;;;;5093984;28;20044;-81
2022/11/14 04:54:58;;;;;;;44.58;31.27;;;7.50;99.90;;;;;;5095289;28;20043;-81
2022/11/14 04:57:23;;;;;;;42.92;29.98;;;7.50;99.90;;;;;;5113457;28;20403;-81
2022/11/14 04:59:49;;;;;;;43.53;30.50;;;7.50;99.90;;;;;;5094164;28;20039;-81
2022/11/14 05:02:15;;;;;;;43.33;31.70;;;7.50;99.90;;;;;;5095263;28;20041;-81
2022/11/14 05:04:40;;;;;;;44.15;32.83;;;7.50;99.90;;;;;;5094491;28;20051;-81
2022/11/14 05:07:06;;;;;;;41.22;30.02;;;7.50;99.90;;;;;;5094199;28;20471;-81
2022/11/14 05:09:32;;;;;;;44.88;32.05;;;7.50;99.90;;;;;;5112799;28;20055;-81
2022/11/14 05:11:57;;;;;;;44.13;30.95;;;7.50;99.90;;;;;;5112922;28;20040;-81
2022/11/14 05:14:23;;;;;;;45.10;30.98;;;7.50;99.90;;;;;;5093425;28;20036;-81
2022/11/14 05:16:48;;;;;;;43.03;31.58;;;7.50;99.90;;;;;;5114948;28;20089;-81
2022/11/14 05:19:14;;;;;;;44.20;32.35;;;7.50;99.90;;;;;;5097362;28;20043;-81
2022/11/14 05:21:39;;;;;;;47.42;32.83;;;7.50;99.90;;;;;;5097707;28;20099;-81
2022/11/14 05:24:05;;;;;;;45.08;32.03;;;7.50;99.90;;;;;;5097192;28;20479;-81
2022/11/14 05:26:31;;;;;;;46.15;32.22;;;7.50;99.90;;;;;;5097901;28;20039;-81
2022/11/14 05:28:56;;;;;;;48.42;32.08;;;7.50;99.90;;;;;;5096804;28;20065;-81
2022/11/14 05:31:22;;;;;;;42.03;30.95;;;7.50;99.90;;;;;;5116659;28;20089;-81
2022/11/14 05:33:47;;;;;;;43.53;31.23;;;7.50;99.90;;;;;;5080197;28;20056;-81
2022/11/14 05:36:15;;;;;;;46.05;32.80;;;7.50;99.90;;;;;;5114102;28;20460;-81
2022/11/14 05:38:41;;;;;;;45.75;33.70;;;7.50;99.90;;;;;;5098028;28;20047;-81
2022/11/14 05:41:09;;;;;;;43.75;30.80;;;7.50;99.90;;;;;;5080123;28;20040;-81
2022/11/14 05:43:36;;;;;;;45.53;32.22;;;7.60;99.90;;;;;;5090299;28;20407;-81
2022/11/14 05:46:04;;;;;;;44.83;32.05;;;7.60;99.90;;;;;;5115974;28;20039;-81
2022/11/14 05:48:30;;;;;;;45.83;32.13;;;7.50;99.90;;;;;;5097665;28;20040;-81
2022/11/14 05:50:57;;;;;;;44.65;30.83;;;7.50;99.90;;;;;;5115681;28;20039;-81
2022/11/14 05:53:24;;;;;;;49.47;33.38;;;7.50;99.90;;;;;;5097917;28;20048;-81
2022/11/14 05:55:49;;;;;;;45.05;31.40;;;7.60;99.90;;;;;;5096737;28;20040;-81
2022/11/14 05:58:15;;;;;;;44.55;31.70;;;7.50;99.90;;;;;;5098070;28;20032;-81
2022/11/14 06:00:41;;;;;;;46.67;32.10;;;7.50;99.90;;;;;;5096312;28;20048;-81
2022/11/14 06:03:06;;;;;;;48.03;33.50;;;7.50;99.90;;;;;;5096076;28;20043;-80
2022/11/14 06:05:34;;;;;;;46.47;31.98;;;7.50;99.90;;;;;;5109550;28;20475;-81
2022/11/14 06:08:00;;;;;;;43.05;31.45;;;7.50;99.90;;;;;;5110354;28;20047;-81
2022/11/14 06:10:26;;;;;;;44.92;32.22;;;7.50;99.90;;;;;;5097016;28;20047;-81
2022/11/14 06:12:51;;;;;;;42.28;30.23;;;7.50;99.90;;;;;;5115604;28;20043;-81
2022/11/14 06:15:17;;;;;;;46.00;32.65;;;7.50;99.90;;;;;;5097067;28;20035;-82
2022/11/14 06:17:43;;;;;;;45.58;31.88;;;7.50;99.90;;;;;;5096751;28;20093;-81
2022/11/14 06:20:09;;;;;;;42.65;30.92;;;7.50;99.90;;;;;;5096580;28;20089;-81
2022/11/14 06:22:35;;;;;;;45.58;31.98;;;7.50;99.90;;;;;;5102259;28;20046;-81
2022/11/14 06:25:01;;;;;;;45.40;31.05;;;7.50;99.90;;;;;;5094906;28;20099;-81
2022/11/14 06:27:27;;;;;;;47.65;32.17;;;7.40;99.90;;;;;;5114292;28;20042;-81
2022/11/14 06:29:52;;;;;;;42.72;30.17;;;7.50;99.90;;;;;;5115163;28;20475;-81
2022/11/14 06:32:18;;;;;;;42.55;29.90;;;7.40;99.90;;;;;;5111356;28;20176;-81
2022/11/14 06:34:44;;;;;;;40.25;29.33;;;7.40;99.90;;;;;;5108142;28;20056;-81
2022/11/14 06:37:09;;;;;;;42.55;31.00;;;7.50;99.90;;;;;;5096217;28;20059;-81
2022/11/14 06:47:48;;;;;;;44.83;31.23;;;7.40;99.90;;;;;;5691707;22;20504;-82
2022/11/14 06:50:14;;;;;;;47.75;31.88;;;7.40;99.90;;;;;;5032498;28;20045;-83
2022/11/14 06:52:39;;;;;;;47.42;32.10;;;7.40;99.90;;;;;;5048737;28;20041;-83
2022/11/14 06:55:05;;;;;;;43.42;29.80;;;7.50;99.90;;;;;;5033021;28;20049;-83
2022/11/14 06:57:31;;;;;;;50.20;32.75;;;7.40;99.90;;;;;;5032754;28;20029;-83
2022/11/14 06:59:57;;;;;;;48.83;32.38;;;7.40;99.90;;;;;;5031337;28;20049;-82
2022/11/14 07:02:22;;;;;;;48.60;33.35;;;7.40;99.90;;;;;;5033199;28;20041;-82
2022/11/14 07:04:48;;;;;;;45.22;30.33;;;7.40;99.90;;;;;;5032348;28;20049;-82
2022/11/14 07:07:14;;;;;;;47.28;31.98;;;7.40;99.90;;;;;;5032293;28;20079;-82
2022/11/14 07:09:39;;;;;;;44.85;30.63;;;7.40;99.90;;;;;;5032368;28;20490;-82
2022/11/14 07:12:05;;;;;;;46.45;31.30;;;7.40;99.90;;;;;;5032832;28;20065;-82
2022/11/14 07:14:31;;;;;;;46.15;31.95;;;7.40;99.90;;;;;;5030310;28;20484;-82
2022/11/14 07:16:57;;;;;;;44.83;30.42;;;7.40;99.90;;;;;;5033859;28;20041;-82
2022/11/14 07:19:23;;;;;;;49.92;32.35;;;7.30;99.90;;;;;;5032161;28;20083;-82
2022/11/14 07:21:48;;;;;;;48.10;31.20;;;7.40;99.90;;;;;;5032598;28;20045;-81
2022/11/14 07:24:14;;;;;;;48.28;31.85;;;7.30;99.90;;;;;;5034086;28;20045;-82
2022/11/14 07:26:39;;;;;;;48.47;31.08;;;7.30;99.90;;;;;;5031154;28;20508;-82
2022/11/14 07:29:05;;;;;;;50.30;32.05;;;7.30;99.90;;;;;;5032595;28;20053;-82
2022/11/14 07:31:30;;;;;;;46.05;30.92;;;7.30;99.90;;;;;;5031827;28;20108;-82
2022/11/14 07:33:56;;;;;;;46.80;31.45;;;7.30;99.90;;;;;;5031050;28;20515;-82
2022/11/14 07:36:22;;;;;;;48.47;31.13;;;7.30;99.90;;;;;;5033215;28;20044;-82
2022/11/14 07:38:48;;;;;;;47.63;30.52;;;7.30;99.90;;;;;;5030924;28;21726;-82
2022/11/14 07:41:15;;;;;;;45.95;30.63;;;7.30;99.90;;;;;;5031296;28;20140;-82
2022/11/14 07:43:41;;;;;;;49.58;32.13;;;7.30;99.90;;;;;;5033620;28;20107;-82
2022/11/14 07:46:13;;;;;;;51.47;32.80;;;7.30;99.90;;;;;;5032093;28;20129;-82
2022/11/14 07:48:39;;;;;;;50.55;32.45;;;7.30;99.90;;;;;;5030766;28;20045;-82
2022/11/14 07:51:06;;;;;;;50.35;31.92;;;7.30;99.90;;;;;;5033297;28;20029;-82
2022/11/14 07:53:32;;;;;;;50.83;32.67;;;7.30;99.90;;;;;;5033604;28;20401;-82
2022/11/14 07:56:03;;;;;;;50.85;32.92;;;7.30;99.90;;;;;;5031260;28;20080;-82
2022/11/14 07:58:29;;;;;;;55.05;33.70;;;7.30;99.90;;;;;;5033437;28;20077;-83
2022/11/14 08:00:55;;;;;;;55.22;33.05;;;7.30;99.90;;;;;;5033379;28;20401;-82
2022/11/14 08:03:20;;;;;;;49.78;31.80;;;7.30;99.90;;;;;;5032816;28;20038;-82
2022/11/14 08:05:46;;;;;;;49.55;31.00;;;7.30;99.90;;;;;;5031209;28;20045;-82
2022/11/14 08:08:12;;;;;;;51.65;33.20;;;7.30;99.90;;;;;;5031304;28;20073;-80
2022/11/14 08:10:37;;;;;;;51.15;32.28;;;7.30;99.90;;;;;;5030693;28;20042;-82
2022/11/14 08:13:04;;;;;;;51.30;32.42;;;7.30;99.90;;;;;;5032017;28;20661;-82
2022/11/14 08:15:30;;;;;;;49.83;32.45;;;7.30;99.90;;;;;;5033417;28;20046;-82
2022/11/14 08:17:57;;;;;;;51.63;33.30;;;7.30;99.90;;;;;;5030533;28;20481;-82
2022/11/14 08:20:23;;;;;;;53.40;33.42;;;7.30;99.90;;;;;;5031542;28;20111;-82
2022/11/14 08:22:52;;;;;;;47.45;32.13;;;7.30;99.90;;;;;;5032996;28;20437;-86
2022/11/14 08:25:18;;;;;;;50.28;32.00;;;7.30;99.90;;;;;;5030957;28;20037;-82
2022/11/14 08:27:43;;;;;;;49.42;31.52;;;7.30;99.90;;;;;;5033986;28;20102;-82
2022/11/14 08:30:09;;;;;;;52.13;32.78;;;7.30;99.90;;;;;;5050269;28;20041;-84
2022/11/14 08:32:35;;;;;;;50.72;32.13;;;7.30;99.90;;;;;;5031200;28;20089;-81
2022/11/14 08:35:01;;;;;;;49.80;31.77;;;7.30;99.90;;;;;;5031213;28;20117;-82
2022/11/14 08:37:26;;;;;;;50.13;32.55;;;7.30;99.90;;;;;;5031673;28;20038;-82
2022/11/14 08:39:52;;;;;;;49.90;32.55;;;7.30;99.90;;;;;;5029278;28;20824;-81
2022/11/14 08:42:17;;;;;;;48.08;31.38;;;7.30;99.90;;;;;;4996134;22;20059;-81
2022/11/14 08:44:43;;;;;;;50.78;32.22;;;7.30;99.90;;;;;;4972922;28;20113;-80
2022/11/14 08:47:08;;;;;;;53.15;32.78;;;7.30;99.90;;;;;;4971406;28;20050;-81
2022/11/14 08:49:34;;;;;;;52.58;32.55;;;7.30;99.90;;;;;;4972597;28;20414;-82
2022/11/14 08:52:03;;;;;;;46.45;31.73;;;7.30;99.90;;;;;;4972014;28;20043;-81
2022/11/14 08:54:29;;;;;;;52.45;32.15;;;7.30;99.90;;;;;;4959600;28;20126;-83
2022/11/14 08:56:55;;;;;;;52.47;32.83;;;7.30;99.90;;;;;;4959616;28;20046;-82
2022/11/14 08:59:20;;;;;;;51.03;31.17;;;7.30;99.90;;;;;;4972174;28;20038;-82
2022/11/14 09:01:49;;;;;;;49.75;32.30;;;7.30;99.90;;;;;;4972505;28;20098;-81
2022/11/14 09:04:15;;;;;;;55.15;32.65;;;7.30;99.90;;;;;;4971097;28;20426;-80
2022/11/14 09:06:41;;;;;;;50.88;31.77;;;7.30;99.90;;;;;;4976578;28;20118;-81
2022/11/14 09:09:15;;;;;;;50.20;31.00;;;7.30;99.90;;;;;;4975261;28;20122;-81
2022/11/14 09:11:56;;;;;;;53.25;31.95;;;7.30;99.90;;;;;;4969350;28;20047;-81
2022/11/14 09:14:22;;;;;;;50.10;30.90;;;7.30;99.90;;;;;;4961568;28;20385;-81
2022/11/14 09:16:48;;;;;;;51.55;31.92;;;7.30;99.90;;;;;;4973309;28;20050;-81
2022/11/14 09:19:13;;;;;;;50.50;31.38;;;7.30;99.90;;;;;;4967874;28;20043;-81
2022/11/14 09:21:39;;;;;;;51.20;31.42;;;7.30;99.90;;;;;;4977319;28;20076;-80
2022/11/14 09:24:05;;;;;;;48.25;31.88;;;7.40;99.90;;;;;;4974394;28;20039;-81
2022/11/14 09:26:33;;;;;;;46.22;30.52;;;7.40;99.90;;;;;;4975151;28;20046;-81
2022/11/14 09:29:01;;;;;;;50.00;31.58;;;7.50;99.90;;;;;;4965619;28;20077;-82
2022/11/14 09:31:29;;;;;;;49.45;32.22;;;7.50;99.90;;;;;;4958550;28;20058;-82
2022/11/14 09:33:55;;;;;;;49.53;31.33;;;7.40;99.90;;;;;;4965523;28;20491;-79
2022/11/14 09:36:20;;;;;;;49.35;30.85;;;7.50;99.90;;;;;;4970425;28;20045;-79
2022/11/14 09:38:46;;;;;;;49.72;31.08;;;7.50;99.90;;;;;;4962593;28;20377;-80
2022/11/14 09:41:39;;;;;;;45.17;30.08;;;7.50;99.90;;;;;;4955886;28;20066;-80
2022/11/14 09:44:43;;;;;;;48.70;29.92;;;7.50;99.90;;;;;;4959325;28;20138;-80
2022/11/14 09:47:13;;;;;;;49.33;30.27;;;7.50;99.90;;;;;;4973936;28;20034;-82
2022/11/14 09:49:41;;;;;;;46.55;30.17;;;7.50;99.90;;;;;;4963661;28;20133;-80
2022/11/14 09:52:19;;;;;;;45.45;29.73;;;7.50;99.90;;;;;;4988889;28;20443;-80
2022/11/14 09:55:18;;;;;;;48.20;29.85;;;7.60;99.90;;;;;;4964600;28;20079;-80
2022/11/14 09:57:45;;;;;;;47.85;29.90;;;7.60;99.90;;;;;;4933167;28;20055;-81
2022/11/14 10:00:22;;;;;;;47.92;30.00;;;7.70;99.90;;;;;;4972228;28;20069;-80
2022/11/14 10:03:26;;;;;;;48.55;30.75;;;7.70;99.90;;;;;;4949506;28;20411;-80
2022/11/14 10:06:17;;;;;;;46.27;29.30;;;7.80;99.90;;;;;;4935955;28;20059;-81
2022/11/14 10:08:46;;;;;;;48.90;29.90;;;7.80;99.90;;;;;;4956943;28;20752;-80
2022/11/14 10:11:23;;;;;;;48.90;30.58;;;7.80;99.90;;;;;;4957737;29;20050;-80
2022/11/14 10:14:03;;;;;;;46.75;29.42;;;7.80;99.90;;;;;;4980320;28;20053;-81
2022/11/14 10:16:49;;;;;;;49.63;30.95;;;7.80;99.90;;;;;;4972671;28;20506;-81
2022/11/14 10:19:25;;;;;;;47.70;30.08;;;7.80;99.90;;;;;;4974396;28;20054;-81
2022/11/14 10:22:01;;;;;;;47.60;30.33;;;7.90;99.90;;;;;;4966643;28;20043;-80
2022/11/14 10:25:02;;;;;;;47.42;30.08;;;7.90;99.90;;;;;;4968782;28;20043;-80
2022/11/14 10:27:36;;;;;;;47.20;30.55;;;7.90;99.90;;;;;;4971815;28;20454;-80
2022/11/14 10:30:14;;;;;;;43.78;28.85;;;7.90;99.90;;;;;;4957611;28;20050;-80
2022/11/14 10:32:52;;;;;;;47.75;29.35;;;8.00;99.90;;;;;;4962516;28;20054;-80
2022/11/14 10:35:39;;;;;;;44.53;29.38;;;8.00;99.90;;;;;;4975143;28;20051;-80
2022/11/14 10:38:32;;;;;;;44.72;28.77;;;8.10;99.90;;;;;;4974324;28;20047;-80
2022/11/14 10:41:01;;;;;;;46.72;29.48;;;8.10;99.90;;;;;;4990798;28;20442;-80
2022/11/14 10:43:44;;;;;;;45.13;28.58;;;8.10;99.90;;;;;;4986431;28;20054;-80
2022/11/14 10:46:27;;;;;;;43.10;28.58;;;8.10;99.90;;;;;;4956702;28;20057;-79
2022/11/14 10:48:53;;;;;;;44.75;30.05;;;8.20;99.90;;;;;;4956511;28;20051;-80
2022/11/14 10:51:43;;;;;;;41.30;27.75;;;8.20;99.90;;;;;;4956614;28;20496;-79
2022/11/14 10:54:08;;;;;;;44.53;29.27;;;8.30;99.90;;;;;;4955789;28;20035;-81
2022/11/14 10:56:44;;;;;;;46.45;29.02;;;8.30;99.90;;;;;;4958353;28;20043;-81
2022/11/14 10:59:09;;;;;;;42.63;28.10;;;8.30;99.90;;;;;;4955058;29;20054;-81
2022/11/14 11:01:39;;;;;;;45.15;28.60;;;8.30;99.90;;;;;;4966799;28;20043;-82
2022/11/14 11:04:23;;;;;;;44.45;28.75;;;8.30;99.90;;;;;;4970630;28;20070;-81
2022/11/14 11:06:51;;;;;;;43.63;27.92;;;8.30;99.90;;;;;;4965946;28;20039;-82
2022/11/14 11:12:14;;;;;;;41.22;27.88;;;8.40;99.90;;;;;;4968089;28;20057;-81
2022/11/14 11:14:39;;;;;;;44.57;28.43;;;8.40;99.90;;;;;;4958681;28;20050;-80
2022/11/14 11:17:11;;;;;;;41.97;27.95;;;8.40;99.90;;;;;;4969425;28;20049;-81
2022/11/14 11:19:38;;;;;;;40.63;27.80;;;8.40;99.90;;;;;;4953466;29;20512;-81
2022/11/14 11:22:04;;;;;;;38.97;27.15;;;8.50;99.90;;;;;;4965362;28;20042;-81
2022/11/14 11:24:35;;;;;;;40.05;27.27;;;8.50;99.90;;;;;;4974086;28;20046;-81
2022/11/14 11:27:26;;;;;;;41.25;27.83;;;8.50;99.90;;;;;;4971743;28;20039;-81
2022/11/14 11:30:19;;;;;;;39.53;26.83;;;8.50;99.90;;;;;;4962968;28;20050;-81
2022/11/14 11:32:44;;;;;;;40.05;27.30;;;8.50;99.90;;;;;;4972260;28;20411;-82
2022/11/14 11:35:13;;;;;;;39.88;27.27;;;8.60;99.90;;;;;;4974626;28;20043;-82
2022/11/14 11:37:46;;;;;;;39.75;27.33;;;8.60;99.90;;;;;;4968937;28;20043;-82
2022/11/14 11:40:16;;;;;;;38.30;26.63;;;8.60;99.90;;;;;;4971160;28;20034;-83
2022/11/14 11:42:49;;;;;;;41.08;27.30;;;8.60;99.90;;;;;;4969829;28;20554;-83
2022/11/14 11:45:17;;;;;;;39.42;26.58;;;8.60;99.90;;;;;;4958884;28;20559;-84
2022/11/14 11:47:50;;;;;;;38.97;26.85;;;8.70;99.90;;;;;;4957612;28;20065;-82
2022/11/14 11:50:19;;;;;;;38.63;26.60;;;8.70;99.90;;;;;;4973333;28;20043;-83
2022/11/14 11:53:01;;;;;;;35.95;25.20;;;8.70;99.90;;;;;;4988110;28;20047;-83
2022/11/14 11:55:32;;;;;;;39.75;27.40;;;8.80;99.90;;;;;;4963505;28;20093;-83
2022/11/14 11:58:24;;;;;;;37.28;25.90;;;8.80;99.90;;;;;;4964534;28;20049;-84
2022/11/14 12:00:54;;;;;;;39.80;26.92;;;8.80;99.90;;;;;;4953910;28;20051;-83
2022/11/14 12:03:24;;;;;;;37.67;26.27;;;8.90;99.90;;;;;;4981185;28;20045;-90
2022/11/14 12:06:07;;;;;;;38.35;25.98;;;8.90;99.90;;;;;;4953738;28;20493;-90
2022/11/14 12:09:01;;;;;;;40.50;26.77;;;9.00;99.90;;;;;;4953007;29;20094;-82
2022/11/14 12:11:29;;;;;;;39.03;26.27;;;9.00;99.90;;;;;;4955425;28;20039;-86
2022/11/14 12:14:24;;;;;;;36.97;25.70;;;9.00;99.90;;;;;;4954935;28;20043;-84
2022/11/14 12:17:32;;;;;;;39.53;26.55;;;9.10;99.90;;;;;;4985003;28;20058;-84
2022/11/14 12:20:16;;;;;;;37.33;25.58;;;9.10;99.90;;;;;;4970887;28;20050;-84
2022/11/14 12:22:54;;;;;;;36.17;24.77;;;9.10;99.90;;;;;;4970903;28;20394;-84
2022/11/14 12:25:41;;;;;;;37.50;24.73;;;9.10;99.90;;;;;;4973338;28;20394;-84
2022/11/14 12:28:20;;;;;;;35.28;24.50;;;9.20;99.90;;;;;;4970428;28;20054;-83
2022/11/14 12:30:50;;;;;;;33.08;23.58;;;9.20;99.90;;;;;;4957105;28;20484;-83
2022/11/14 12:33:22;;;;;;;36.88;24.88;;;9.20;99.90;;;;;;4972656;28;20046;-83
2022/11/14 12:35:52;;;;;;;35.35;25.27;;;9.30;99.90;;;;;;4966981;28;20142;-83
2022/11/14 12:38:20;;;;;;;35.60;24.23;;;9.30;99.90;;;;;;4953208;28;20090;-83
2022/11/14 12:40:52;;;;;;;36.80;26.55;;;9.30;99.90;;;;;;4959574;28;20086;-83
2022/11/14 12:43:40;;;;;;;37.65;24.75;;;9.30;99.70;;;;;;4967648;28;20057;-83
2022/11/14 12:46:08;;;;;;;34.53;24.58;;;9.40;99.70;;;;;;4960468;28;20042;-81
2022/11/14 12:48:42;;;;;;;37.22;24.17;;;9.40;99.80;;;;;;4985143;28;20123;-83
2022/11/14 12:51:25;;;;;;;34.50;23.98;;;9.40;99.70;;;;;;4970572;28;20051;-82
2022/11/14 12:53:52;;;;;;;32.42;23.42;;;9.40;99.70;;;;;;4969874;28;20170;-82
2022/11/14 12:56:30;;;;;;;36.45;25.25;;;9.50;99.80;;;;;;4953563;29;20447;-83